createdAt,value
2018-11-14T00:00:37.595Z,28.59
2018-11-14T00:01:37.535Z,28.50
2018-11-14T00:02:37.540Z,28.59
2018-11-14T00:03:37.576Z,28.69
2018-11-14T00:04:37.547Z,28.50
2018-11-14T00:05:37.550Z,28.59
2018-11-14T00:06:37.554Z,28.59
2018-11-14T00:07:37.560Z,28.59
2018-11-14T00:08:37.562Z,28.50
2018-11-14T00:09:37.643Z,28.98
2018-11-14T00:10:37.567Z,28.59
2018-11-14T00:11:37.572Z,28.50
2018-11-14T00:12:37.579Z,28.69
2018-11-14T00:13:37.579Z,28.69
2018-11-14T00:14:37.581Z,28.59
2018-11-14T00:15:37.585Z,28.59
2018-11-14T00:16:37.610Z,28.59
2018-11-14T00:17:37.592Z,28.59
2018-11-14T00:18:37.599Z,28.50
2018-11-14T00:19:37.599Z,28.59
2018-11-14T00:20:37.604Z,28.59
2018-11-14T00:21:37.606Z,28.69
2018-11-14T00:22:37.610Z,28.79
2018-11-14T00:23:37.622Z,28.59
2018-11-14T00:24:37.660Z,28.59
2018-11-14T00:25:37.620Z,28.69
2018-11-14T00:26:37.645Z,28.69
2018-11-14T00:27:37.633Z,28.59
2018-11-14T00:28:37.732Z,28.69
2018-11-14T00:29:37.634Z,28.79
2018-11-14T00:30:37.636Z,28.69
2018-11-14T00:31:37.644Z,28.69
2018-11-14T00:32:37.644Z,28.79
2018-11-14T00:33:37.649Z,28.79
2018-11-14T00:34:37.687Z,28.89
2018-11-14T00:35:37.709Z,28.79
2018-11-14T00:36:37.661Z,28.89
2018-11-14T00:37:37.662Z,28.89
2018-11-14T00:38:37.665Z,28.89
2018-11-14T00:39:37.670Z,28.79
2018-11-14T00:40:37.686Z,28.89
2018-11-14T00:41:37.682Z,28.89
2018-11-14T00:42:37.678Z,28.79
2018-11-14T00:43:37.685Z,28.69
2018-11-14T00:44:37.689Z,28.59
2018-11-14T00:45:37.690Z,28.59
2018-11-14T00:46:37.692Z,28.69
2018-11-14T00:47:37.701Z,28.69
2018-11-14T00:48:37.700Z,28.69
2018-11-14T00:49:37.703Z,28.79
2018-11-14T00:50:37.705Z,28.69
2018-11-14T00:51:37.709Z,28.59
2018-11-14T00:52:37.720Z,28.59
2018-11-14T00:53:37.723Z,28.69
2018-11-14T00:54:37.722Z,28.69
2018-11-14T00:55:37.727Z,28.69
2018-11-14T00:56:37.726Z,28.69
2018-11-14T00:57:37.740Z,28.89
2018-11-14T00:58:37.759Z,28.89
2018-11-14T00:59:37.737Z,28.79
2018-11-14T01:00:37.742Z,28.69
2018-11-14T01:01:37.841Z,28.69
2018-11-14T01:02:37.750Z,28.69
2018-11-14T01:03:37.751Z,28.50
2018-11-14T01:04:37.758Z,28.69
2018-11-14T01:05:37.759Z,28.59
2018-11-14T01:06:37.763Z,28.50
2018-11-14T01:07:37.765Z,28.59
2018-11-14T01:08:37.769Z,28.59
2018-11-14T01:09:37.772Z,28.50
2018-11-14T01:10:37.775Z,28.59
2018-11-14T01:11:37.780Z,28.50
2018-11-14T01:12:37.782Z,28.50
2018-11-14T01:13:37.791Z,28.50
2018-11-14T01:14:37.789Z,28.69
2018-11-14T01:15:37.794Z,28.59
2018-11-14T01:16:37.809Z,28.59
2018-11-14T01:17:38.138Z,28.50
2018-11-14T01:18:37.803Z,28.59
2018-11-14T01:19:37.812Z,28.59
2018-11-14T01:20:37.812Z,28.59
2018-11-14T01:21:37.852Z,28.50
2018-11-14T01:22:37.816Z,28.40
2018-11-14T01:23:37.829Z,28.50
2018-11-14T01:24:37.851Z,28.59
2018-11-14T01:25:37.828Z,28.59
2018-11-14T01:26:37.829Z,28.50
2018-11-14T01:27:37.834Z,28.50
2018-11-14T01:28:37.841Z,28.40
2018-11-14T01:29:37.843Z,28.40
2018-11-14T01:30:37.861Z,28.40
2018-11-14T01:31:37.851Z,28.59
2018-11-14T01:32:37.855Z,28.59
2018-11-14T01:33:37.860Z,28.30
2018-11-14T01:34:37.862Z,28.40
2018-11-14T01:35:37.908Z,28.50
2018-11-14T01:36:37.866Z,28.30
2018-11-14T01:37:37.891Z,28.20
2018-11-14T01:38:37.873Z,28.30
2018-11-14T01:39:37.876Z,28.30
2018-11-14T01:40:37.879Z,28.20
2018-11-14T01:41:37.889Z,28.11
2018-11-14T01:42:37.886Z,28.20
2018-11-14T01:43:37.890Z,28.20
2018-11-14T01:44:37.895Z,28.20
2018-11-14T01:45:37.897Z,28.20
2018-11-14T01:46:37.898Z,28.40
2018-11-14T01:47:37.905Z,28.30
2018-11-14T01:48:37.907Z,28.30
2018-11-14T01:49:37.964Z,28.20
2018-11-14T01:50:37.914Z,28.11
2018-11-14T01:51:37.917Z,28.11
2018-11-14T01:52:38.012Z,28.30
2018-11-14T01:53:37.926Z,28.20
2018-11-14T01:54:37.927Z,28.20
2018-11-14T01:55:37.935Z,28.20
2018-11-14T01:56:37.935Z,28.20
2018-11-14T01:57:37.940Z,28.20
2018-11-14T01:58:37.945Z,28.11
2018-11-14T01:59:37.951Z,28.30
2018-11-14T02:00:37.951Z,28.30
2018-11-14T02:01:37.953Z,28.30
2018-11-14T02:02:37.955Z,28.20
2018-11-14T02:03:37.959Z,28.30
2018-11-14T02:04:37.995Z,28.20
2018-11-14T02:05:37.966Z,28.20
2018-11-14T02:06:37.972Z,28.20
2018-11-14T02:07:38.050Z,28.20
2018-11-14T02:08:37.982Z,28.30
2018-11-14T02:09:37.980Z,28.20
2018-11-14T02:10:37.984Z,28.30
2018-11-14T02:11:37.986Z,28.20
2018-11-14T02:12:37.991Z,28.11
2018-11-14T02:13:38.034Z,28.30
2018-11-14T02:14:37.997Z,28.30
2018-11-14T02:15:38.002Z,28.20
2018-11-14T02:16:38.005Z,28.30
2018-11-14T02:17:38.011Z,28.30
2018-11-14T02:18:38.012Z,28.20
2018-11-14T02:19:38.015Z,28.20
2018-11-14T02:20:38.019Z,28.02
2018-11-14T02:21:38.021Z,28.30
2018-11-14T02:22:38.060Z,28.20
2018-11-14T02:23:38.029Z,28.30
2018-11-14T02:24:38.032Z,28.30
2018-11-14T02:25:38.041Z,28.30
2018-11-14T02:26:38.044Z,28.30
2018-11-14T02:27:38.043Z,28.20
2018-11-14T02:28:38.048Z,28.30
2018-11-14T02:29:38.050Z,27.92
2018-11-14T02:30:38.052Z,27.92
2018-11-14T02:31:38.055Z,27.92
2018-11-14T02:32:38.110Z,28.02
2018-11-14T02:33:38.064Z,27.92
2018-11-14T02:34:38.068Z,27.92
2018-11-14T02:35:38.070Z,27.92
2018-11-14T02:36:38.079Z,28.02
2018-11-14T02:37:38.084Z,28.02
2018-11-14T02:38:38.087Z,28.11
2018-11-14T02:39:38.084Z,28.02
2018-11-14T02:40:38.092Z,28.02
2018-11-14T02:41:38.091Z,28.02
2018-11-14T02:42:38.094Z,28.02
2018-11-14T02:43:38.098Z,28.11
2018-11-14T02:44:38.102Z,27.92
2018-11-14T02:45:38.116Z,27.92
2018-11-14T02:46:38.109Z,28.02
2018-11-14T02:47:38.117Z,27.92
2018-11-14T02:48:38.117Z,27.92
2018-11-14T02:49:38.119Z,27.92
2018-11-14T02:50:38.129Z,28.02
2018-11-14T02:51:38.126Z,28.02
2018-11-14T02:52:38.130Z,27.92
2018-11-14T02:53:38.170Z,27.92
2018-11-14T02:54:38.137Z,28.11
2018-11-14T02:55:38.140Z,28.02
2018-11-14T02:56:38.144Z,28.02
2018-11-14T02:57:38.151Z,28.02
2018-11-14T02:58:38.151Z,28.11
2018-11-14T02:59:38.159Z,28.11
2018-11-14T03:00:38.210Z,28.11
2018-11-14T03:01:38.162Z,28.11
2018-11-14T03:02:38.164Z,28.20
2018-11-14T03:03:38.173Z,28.11
2018-11-14T03:04:38.175Z,28.11
2018-11-14T03:05:38.175Z,28.11
2018-11-14T03:06:38.178Z,28.11
2018-11-14T03:07:38.182Z,28.20
2018-11-14T03:08:38.197Z,28.11
2018-11-14T03:09:38.190Z,28.11
2018-11-14T03:10:38.196Z,28.02
2018-11-14T03:11:38.195Z,28.11
2018-11-14T03:12:38.295Z,28.11
2018-11-14T03:13:38.211Z,28.20
2018-11-14T03:14:38.213Z,28.11
2018-11-14T03:15:38.209Z,28.11
2018-11-14T03:16:38.212Z,28.11
2018-11-14T03:17:38.215Z,28.11
2018-11-14T03:18:38.218Z,28.02
2018-11-14T03:19:38.252Z,28.11
2018-11-14T03:20:38.227Z,28.11
2018-11-14T03:21:38.230Z,28.20
2018-11-14T03:22:38.234Z,28.11
2018-11-14T03:23:38.237Z,28.20
2018-11-14T03:24:38.241Z,28.02
2018-11-14T03:25:38.244Z,28.11
2018-11-14T03:26:38.246Z,28.11
2018-11-14T03:27:38.250Z,28.11
2018-11-14T03:28:38.259Z,28.11
2018-11-14T03:29:38.257Z,28.11
2018-11-14T03:30:38.262Z,28.11
2018-11-14T03:31:38.265Z,28.11
2018-11-14T03:32:38.271Z,28.20
2018-11-14T03:33:38.272Z,28.20
2018-11-14T03:34:38.280Z,28.40
2018-11-14T03:35:38.359Z,28.30
2018-11-14T03:36:38.282Z,28.30
2018-11-14T03:37:38.286Z,28.20
2018-11-14T03:38:38.288Z,28.30
2018-11-14T03:39:38.299Z,28.11
2018-11-14T03:40:38.295Z,28.11
2018-11-14T03:41:38.303Z,28.11
2018-11-14T03:42:38.306Z,28.20
2018-11-14T03:43:38.307Z,28.20
2018-11-14T03:44:38.310Z,28.11
2018-11-14T03:45:38.314Z,28.30
2018-11-14T03:46:38.318Z,28.30
2018-11-14T03:47:38.320Z,28.30
2018-11-14T03:48:38.323Z,28.11
2018-11-14T03:49:38.328Z,28.30
2018-11-14T03:50:38.331Z,28.30
2018-11-14T03:51:38.334Z,28.11
2018-11-14T03:52:38.337Z,28.11
2018-11-14T03:53:38.343Z,28.02
2018-11-14T03:54:38.344Z,28.11
2018-11-14T03:55:38.347Z,28.02
2018-11-14T03:56:38.352Z,28.02
2018-11-14T03:57:38.359Z,27.92
2018-11-14T03:58:38.358Z,28.02
2018-11-14T03:59:38.392Z,28.02
2018-11-14T04:00:38.366Z,27.92
2018-11-14T04:01:38.370Z,28.02
2018-11-14T04:02:38.379Z,28.02
2018-11-14T04:03:38.377Z,28.02
2018-11-14T04:04:38.472Z,28.02
2018-11-14T04:05:38.403Z,28.11
2018-11-14T04:06:38.385Z,28.02
2018-11-14T04:07:38.399Z,28.02
2018-11-14T04:08:38.393Z,27.82
2018-11-14T04:09:38.395Z,28.02
2018-11-14T04:10:38.400Z,28.02
2018-11-14T04:11:38.404Z,27.82
2018-11-14T04:12:38.407Z,27.82
2018-11-14T04:13:38.410Z,27.82
2018-11-14T04:14:38.417Z,27.92
2018-11-14T04:15:38.420Z,27.82
2018-11-14T04:16:38.420Z,27.92
2018-11-14T04:17:38.424Z,27.82
2018-11-14T04:18:38.428Z,27.82
2018-11-14T04:19:38.434Z,28.02
2018-11-14T04:20:38.435Z,27.92
2018-11-14T04:21:38.438Z,27.62
2018-11-14T04:22:38.458Z,27.92
2018-11-14T04:23:38.445Z,27.72
2018-11-14T04:24:38.451Z,27.82
2018-11-14T04:25:38.452Z,27.92
2018-11-14T04:26:38.455Z,27.92
2018-11-14T04:27:38.458Z,27.92
2018-11-14T04:28:38.462Z,27.92
2018-11-14T04:29:38.466Z,27.92
2018-11-14T04:30:38.468Z,27.82
2018-11-14T04:31:38.473Z,27.82
2018-11-14T04:32:38.481Z,27.82
2018-11-14T04:33:38.480Z,27.72
2018-11-14T04:34:38.482Z,27.72
2018-11-14T04:35:38.488Z,27.72
2018-11-14T04:36:38.491Z,27.82
2018-11-14T04:37:38.498Z,27.82
2018-11-14T04:38:38.495Z,27.82
2018-11-14T04:39:38.500Z,27.73
2018-11-14T04:40:38.503Z,27.82
2018-11-14T04:41:38.507Z,27.82
2018-11-14T04:42:38.510Z,27.72
2018-11-14T04:43:38.516Z,27.92
2018-11-14T04:44:38.519Z,27.82
2018-11-14T04:45:38.521Z,27.72
2018-11-14T04:46:38.528Z,27.62
2018-11-14T04:47:38.530Z,27.62
2018-11-14T04:48:38.533Z,27.72
2018-11-14T04:49:38.548Z,27.82
2018-11-14T04:50:38.539Z,27.82
2018-11-14T04:51:38.617Z,27.72
2018-11-14T04:52:38.547Z,27.72
2018-11-14T04:53:38.550Z,27.72
2018-11-14T04:54:38.553Z,27.72
2018-11-14T04:55:38.559Z,27.62
2018-11-14T04:56:38.567Z,27.72
2018-11-14T04:57:38.637Z,27.72
2018-11-14T04:58:38.566Z,27.72
2018-11-14T04:59:38.570Z,27.72
2018-11-14T05:00:38.574Z,27.72
2018-11-14T05:01:38.582Z,27.72
2018-11-14T05:02:38.666Z,27.62
2018-11-14T05:03:38.600Z,27.62
2018-11-14T05:04:38.590Z,27.92
2018-11-14T05:05:38.593Z,27.82
2018-11-14T05:06:38.594Z,28.02
2018-11-14T05:07:38.598Z,27.72
2018-11-14T05:08:38.602Z,27.82
2018-11-14T05:09:38.605Z,27.72
2018-11-14T05:10:38.608Z,27.92
2018-11-14T05:11:38.612Z,27.62
2018-11-14T05:12:38.615Z,27.82
2018-11-14T05:13:38.620Z,27.82
2018-11-14T05:14:38.630Z,27.82
2018-11-14T05:15:38.669Z,27.62
2018-11-14T05:16:38.629Z,27.82
2018-11-14T05:17:38.633Z,27.62
2018-11-14T05:18:38.636Z,27.82
2018-11-14T05:19:38.641Z,27.82
2018-11-14T05:20:38.645Z,27.82
2018-11-14T05:21:38.647Z,27.92
2018-11-14T05:22:38.650Z,27.72
2018-11-14T05:23:38.653Z,27.72
2018-11-14T05:24:38.747Z,27.82
2018-11-14T05:25:38.661Z,27.72
2018-11-14T05:26:38.664Z,27.72
2018-11-14T05:27:38.668Z,27.72
2018-11-14T05:28:38.672Z,27.82
2018-11-14T05:29:38.675Z,27.73
2018-11-14T05:30:38.678Z,27.64
2018-11-14T05:31:38.702Z,27.82
2018-11-14T05:32:38.685Z,27.72
2018-11-14T05:33:38.689Z,27.83
2018-11-14T05:34:38.692Z,27.62
2018-11-14T05:35:38.695Z,27.53
2018-11-14T05:36:38.699Z,27.72
2018-11-14T05:37:38.704Z,27.73
2018-11-14T05:38:38.707Z,27.54
2018-11-14T05:39:38.767Z,27.33
2018-11-14T05:40:38.714Z,27.54
2018-11-14T05:41:38.718Z,27.33
2018-11-14T05:42:38.720Z,27.33
2018-11-14T05:43:38.749Z,26.96
2018-11-14T05:44:38.733Z,26.96
2018-11-14T05:45:38.823Z,26.75
2018-11-14T05:46:38.734Z,26.37
2018-11-14T05:47:38.736Z,26.65
2018-11-14T05:48:38.741Z,26.46
2018-11-14T05:49:38.747Z,26.37
2018-11-14T05:50:38.748Z,26.17
2018-11-14T05:51:38.751Z,26.46
2018-11-14T05:52:38.755Z,26.09
2018-11-14T05:53:38.759Z,26.07
2018-11-14T05:54:38.767Z,25.99
2018-11-14T05:55:38.766Z,26.18
2018-11-14T05:56:38.774Z,26.07
2018-11-14T05:57:38.778Z,26.38
2018-11-14T05:58:38.777Z,25.99
2018-11-14T05:59:38.780Z,25.98
2018-11-14T06:00:38.786Z,25.78
2018-11-14T06:01:38.787Z,25.70
2018-11-14T06:02:38.792Z,25.60
2018-11-14T06:03:38.795Z,25.51
2018-11-14T06:04:38.816Z,25.60
2018-11-14T06:05:38.801Z,25.60
2018-11-14T06:06:38.803Z,25.60
2018-11-14T06:07:38.901Z,25.70
2018-11-14T06:08:38.813Z,25.79
2018-11-14T06:09:38.817Z,25.51
2018-11-14T06:10:38.849Z,25.21
2018-11-14T06:11:38.825Z,25.12
2018-11-14T06:12:38.832Z,25.12
2018-11-14T06:13:38.901Z,25.21
2018-11-14T06:14:38.833Z,25.31
2018-11-14T06:15:38.839Z,25.12
2018-11-14T06:16:38.865Z,25.02
2018-11-14T06:17:38.845Z,25.12
2018-11-14T06:18:38.855Z,25.12
2018-11-14T06:19:38.870Z,25.02
2018-11-14T06:20:38.856Z,24.73
2018-11-14T06:21:38.862Z,24.83
2018-11-14T06:22:38.876Z,24.92
2018-11-14T06:23:38.976Z,24.92
2018-11-14T06:24:38.870Z,24.73
2018-11-14T06:25:38.877Z,24.92
2018-11-14T06:26:38.911Z,24.83
2018-11-14T06:27:38.880Z,24.83
2018-11-14T06:28:38.884Z,24.92
2018-11-14T06:29:38.893Z,24.73
2018-11-14T06:30:38.893Z,24.83
2018-11-14T06:31:38.894Z,24.83
2018-11-14T06:32:38.898Z,24.73
2018-11-14T06:33:38.902Z,24.73
2018-11-14T06:34:38.906Z,24.83
2018-11-14T06:35:38.911Z,24.54
2018-11-14T06:36:38.913Z,24.63
2018-11-14T06:37:38.917Z,24.63
2018-11-14T06:38:38.920Z,24.24
2018-11-14T06:39:38.923Z,24.34
2018-11-14T06:40:38.927Z,24.34
2018-11-14T06:41:39.004Z,24.34
2018-11-14T06:42:38.936Z,24.44
2018-11-14T06:43:38.936Z,24.63
2018-11-14T06:44:38.999Z,24.54
2018-11-14T06:45:38.946Z,24.63
2018-11-14T06:46:38.947Z,24.54
2018-11-14T06:47:38.952Z,24.73
2018-11-14T06:48:38.957Z,24.73
2018-11-14T06:49:38.960Z,24.63
2018-11-14T06:50:39.004Z,24.63
2018-11-14T06:51:38.967Z,24.63
2018-11-14T06:52:38.970Z,24.73
2018-11-14T06:53:38.978Z,24.63
2018-11-14T06:54:38.977Z,24.44
2018-11-14T06:55:38.982Z,24.63
2018-11-14T06:56:38.985Z,24.63
2018-11-14T06:57:38.987Z,24.54
2018-11-14T06:58:39.024Z,24.73
2018-11-14T06:59:38.999Z,24.63
2018-11-14T07:00:39.004Z,24.54
2018-11-14T07:01:39.006Z,24.83
2018-11-14T07:02:39.007Z,24.73
2018-11-14T07:03:39.030Z,24.73
2018-11-14T07:04:39.016Z,24.54
2018-11-14T07:05:39.063Z,24.54
2018-11-14T07:06:39.021Z,24.63
2018-11-14T07:07:39.024Z,24.34
2018-11-14T07:08:39.031Z,24.44
2018-11-14T07:09:39.033Z,24.44
2018-11-14T07:10:39.035Z,24.34
2018-11-14T07:11:39.041Z,24.24
2018-11-14T07:12:39.091Z,24.34
2018-11-14T07:13:39.047Z,24.15
2018-11-14T07:14:39.056Z,24.24
2018-11-14T07:15:39.054Z,24.24
2018-11-14T07:16:39.058Z,24.15
2018-11-14T07:17:39.089Z,24.24
2018-11-14T07:18:39.081Z,24.15
2018-11-14T07:19:39.070Z,24.15
2018-11-14T07:20:39.071Z,24.24
2018-11-14T07:21:39.077Z,24.44
2018-11-14T07:22:39.079Z,24.34
2018-11-14T07:23:39.115Z,24.15
2018-11-14T07:24:39.229Z,24.24
2018-11-14T07:25:39.091Z,24.15
2018-11-14T07:26:39.095Z,24.15
2018-11-14T07:27:39.098Z,24.15
2018-11-14T07:28:39.107Z,24.44
2018-11-14T07:29:39.105Z,24.44
2018-11-14T07:30:39.110Z,24.44
2018-11-14T07:31:39.112Z,24.73
2018-11-14T07:32:39.115Z,24.54
2018-11-14T07:33:39.120Z,24.63
2018-11-14T07:34:39.126Z,24.73
2018-11-14T07:35:39.127Z,24.73
2018-11-14T07:36:39.183Z,24.54
2018-11-14T07:37:39.201Z,24.54
2018-11-14T07:38:39.141Z,24.54
2018-11-14T07:39:39.140Z,24.63
2018-11-14T07:40:39.145Z,24.54
2018-11-14T07:41:39.150Z,24.54
2018-11-14T07:42:39.151Z,24.63
2018-11-14T07:43:39.313Z,24.54
2018-11-14T07:44:39.160Z,24.73
2018-11-14T07:45:39.163Z,24.73
2018-11-14T07:46:39.167Z,24.73
2018-11-14T07:47:39.169Z,24.63
2018-11-14T07:48:39.174Z,24.63
2018-11-14T07:49:39.181Z,24.73
2018-11-14T07:50:39.181Z,24.54
2018-11-14T07:51:39.185Z,24.63
2018-11-14T07:52:39.192Z,24.63
2018-11-14T07:53:39.195Z,24.54
2018-11-14T07:54:39.219Z,24.63
2018-11-14T07:55:39.199Z,24.63
2018-11-14T07:56:39.203Z,24.63
2018-11-14T07:57:39.211Z,24.54
2018-11-14T07:58:39.210Z,24.54
2018-11-14T07:59:39.213Z,24.54
2018-11-14T08:00:39.279Z,24.63
2018-11-14T08:01:39.223Z,24.54
2018-11-14T08:02:39.250Z,24.54
2018-11-14T08:03:39.272Z,24.63
2018-11-14T08:04:39.233Z,24.63
2018-11-14T08:05:39.291Z,24.63
2018-11-14T08:06:39.244Z,24.54
2018-11-14T08:07:39.264Z,24.54
2018-11-14T08:08:39.247Z,24.54
2018-11-14T08:09:39.251Z,24.54
2018-11-14T08:10:39.254Z,24.54
2018-11-14T08:11:39.256Z,24.54
2018-11-14T08:12:39.263Z,24.54
2018-11-14T08:13:39.265Z,24.63
2018-11-14T08:14:39.269Z,24.63
2018-11-14T08:15:39.271Z,24.63
2018-11-14T08:16:39.276Z,24.54
2018-11-14T08:17:39.352Z,24.54
2018-11-14T08:18:39.345Z,24.54
2018-11-14T08:19:39.303Z,24.54
2018-11-14T08:20:39.291Z,24.54
2018-11-14T08:21:39.295Z,24.54
2018-11-14T08:22:39.298Z,24.54
2018-11-14T08:23:39.302Z,24.44
2018-11-14T08:24:39.304Z,24.54
2018-11-14T08:25:39.306Z,24.44
2018-11-14T08:26:39.311Z,24.34
2018-11-14T08:27:39.315Z,24.24
2018-11-14T08:28:39.322Z,24.34
2018-11-14T08:29:39.324Z,24.24
2018-11-14T08:30:39.438Z,24.34
2018-11-14T08:31:39.331Z,24.54
2018-11-14T08:32:39.333Z,24.44
2018-11-14T08:33:39.349Z,24.44
2018-11-14T08:34:39.370Z,24.24
2018-11-14T08:35:39.345Z,24.34
2018-11-14T08:36:39.435Z,24.63
2018-11-14T08:37:39.353Z,24.63
2018-11-14T08:38:39.356Z,24.34
2018-11-14T08:39:39.419Z,24.63
2018-11-14T08:40:39.365Z,24.63
2018-11-14T08:41:39.364Z,24.73
2018-11-14T08:42:39.370Z,24.83
2018-11-14T08:43:39.374Z,24.73
2018-11-14T08:44:39.378Z,24.73
2018-11-14T08:45:39.382Z,24.73
2018-11-14T08:46:39.385Z,24.63
2018-11-14T08:47:39.388Z,24.63
2018-11-14T08:48:39.395Z,24.83
2018-11-14T08:49:39.396Z,24.73
2018-11-14T08:50:39.402Z,24.83
2018-11-14T08:51:39.404Z,24.73
2018-11-14T08:52:39.406Z,24.73
2018-11-14T08:53:39.413Z,24.63
2018-11-14T08:54:39.414Z,24.73
2018-11-14T08:55:39.421Z,24.73
2018-11-14T08:56:39.464Z,24.83
2018-11-14T08:57:39.425Z,24.63
2018-11-14T08:58:39.444Z,24.83
2018-11-14T08:59:39.431Z,24.83
2018-11-14T09:00:39.444Z,24.92
2018-11-14T09:01:39.441Z,24.92
2018-11-14T09:02:39.441Z,24.92
2018-11-14T09:03:39.525Z,24.92
2018-11-14T09:04:39.453Z,24.92
2018-11-14T09:05:39.454Z,24.92
2018-11-14T09:06:39.459Z,24.83
2018-11-14T09:07:39.526Z,24.83
2018-11-14T09:08:39.468Z,24.83
2018-11-14T09:09:39.469Z,25.02
2018-11-14T09:10:39.471Z,24.92
2018-11-14T09:11:39.475Z,25.02
2018-11-14T09:12:39.589Z,24.83
2018-11-14T09:13:39.484Z,24.83
2018-11-14T09:14:39.555Z,24.83
2018-11-14T09:15:39.490Z,24.83
2018-11-14T09:16:39.496Z,24.92
2018-11-14T09:17:39.497Z,24.83
2018-11-14T09:18:39.538Z,24.73
2018-11-14T09:19:39.504Z,24.83
2018-11-14T09:20:39.513Z,24.92
2018-11-14T09:21:39.513Z,24.73
2018-11-14T09:22:39.518Z,24.73
2018-11-14T09:23:39.547Z,24.73
2018-11-14T09:24:39.531Z,25.02
2018-11-14T09:25:39.527Z,24.92
2018-11-14T09:26:39.529Z,25.02
2018-11-14T09:27:39.534Z,25.02
2018-11-14T09:28:39.538Z,25.02
2018-11-14T09:29:39.543Z,24.92
2018-11-14T09:30:39.551Z,24.92
2018-11-14T09:31:39.549Z,25.02
2018-11-14T09:32:39.553Z,24.92
2018-11-14T09:33:39.557Z,24.92
2018-11-14T09:34:39.609Z,25.02
2018-11-14T09:35:39.563Z,25.12
2018-11-14T09:36:39.569Z,25.12
2018-11-14T09:37:39.571Z,25.12
2018-11-14T09:38:39.576Z,25.02
2018-11-14T09:39:39.579Z,24.92
2018-11-14T09:40:39.612Z,25.02
2018-11-14T09:41:39.586Z,25.02
2018-11-14T09:42:39.588Z,25.02
2018-11-14T09:43:39.593Z,25.02
2018-11-14T09:44:39.691Z,25.12
2018-11-14T09:45:39.655Z,25.02
2018-11-14T09:46:39.604Z,25.02
2018-11-14T09:47:39.607Z,25.12
2018-11-14T09:48:39.613Z,25.12
2018-11-14T09:49:39.615Z,25.12
2018-11-14T09:50:39.617Z,25.31
2018-11-14T09:51:39.622Z,25.12
2018-11-14T09:52:39.624Z,25.12
2018-11-14T09:53:39.629Z,25.31
2018-11-14T09:54:39.633Z,25.12
2018-11-14T09:55:39.642Z,25.12
2018-11-14T09:56:39.649Z,25.21
2018-11-14T09:57:39.643Z,25.31
2018-11-14T09:58:39.662Z,25.21
2018-11-14T09:59:39.648Z,25.21
2018-11-14T10:00:39.667Z,25.21
2018-11-14T10:01:39.662Z,25.21
2018-11-14T10:02:39.708Z,25.31
2018-11-14T10:03:39.728Z,25.21
2018-11-14T10:04:39.669Z,25.12
2018-11-14T10:05:39.674Z,25.12
2018-11-14T10:06:39.674Z,25.12
2018-11-14T10:07:39.687Z,25.12
2018-11-14T10:08:39.685Z,25.12
2018-11-14T10:09:39.686Z,25.12
2018-11-14T10:10:39.689Z,25.21
2018-11-14T10:11:39.730Z,25.21
2018-11-14T10:12:39.696Z,25.21
2018-11-14T10:13:39.704Z,25.31
2018-11-14T10:14:39.705Z,25.31
2018-11-14T10:15:39.834Z,25.41
2018-11-14T10:16:39.711Z,25.41
2018-11-14T10:17:39.718Z,25.31
2018-11-14T10:18:39.729Z,25.31
2018-11-14T10:19:39.721Z,25.31
2018-11-14T10:20:39.746Z,25.21
2018-11-14T10:21:39.875Z,25.31
2018-11-14T10:22:39.733Z,25.21
2018-11-14T10:23:39.737Z,25.31
2018-11-14T10:24:39.741Z,25.21
2018-11-14T10:25:39.752Z,25.21
2018-11-14T10:26:39.800Z,25.31
2018-11-14T10:27:39.751Z,25.51
2018-11-14T10:28:39.768Z,25.41
2018-11-14T10:29:39.762Z,25.41
2018-11-14T10:30:39.762Z,25.31
2018-11-14T10:31:39.902Z,25.21
2018-11-14T10:32:39.768Z,25.31
2018-11-14T10:33:39.774Z,25.21
2018-11-14T10:34:39.777Z,25.21
2018-11-14T10:35:39.783Z,25.21
2018-11-14T10:36:39.785Z,25.31
2018-11-14T10:37:39.788Z,25.31
2018-11-14T10:38:39.827Z,25.21
2018-11-14T10:39:39.794Z,25.41
2018-11-14T10:40:39.800Z,25.21
2018-11-14T10:41:39.807Z,25.41
2018-11-14T10:42:39.810Z,25.51
2018-11-14T10:43:39.813Z,25.51
2018-11-14T10:44:39.816Z,25.51
2018-11-14T10:45:39.818Z,25.41
2018-11-14T10:46:39.820Z,25.51
2018-11-14T10:47:39.824Z,25.41
2018-11-14T10:48:39.851Z,25.41
2018-11-14T10:49:39.831Z,25.31
2018-11-14T10:50:39.837Z,25.31
2018-11-14T10:51:39.881Z,25.31
2018-11-14T10:52:39.846Z,25.21
2018-11-14T10:53:39.846Z,25.21
2018-11-14T10:54:39.849Z,25.31
2018-11-14T10:55:39.852Z,25.41
2018-11-14T10:56:39.856Z,25.31
2018-11-14T10:57:39.864Z,25.21
2018-11-14T10:58:39.866Z,25.41
2018-11-14T10:59:39.869Z,25.41
2018-11-14T11:00:39.875Z,25.21
2018-11-14T11:01:39.881Z,25.31
2018-11-14T11:02:39.879Z,25.21
2018-11-14T11:03:39.892Z,25.21
2018-11-14T11:04:39.889Z,25.70
2018-11-14T11:05:39.894Z,25.51
2018-11-14T11:06:39.890Z,25.60
2018-11-14T11:07:39.897Z,25.70
2018-11-14T11:08:39.991Z,25.79
2018-11-14T11:09:39.906Z,25.70
2018-11-14T11:10:39.906Z,25.79
2018-11-14T11:11:39.911Z,25.70
2018-11-14T11:12:39.916Z,25.79
2018-11-14T11:13:39.980Z,25.70
2018-11-14T11:14:39.923Z,25.70
2018-11-14T11:15:39.929Z,25.79
2018-11-14T11:16:39.981Z,25.79
2018-11-14T11:17:39.935Z,25.70
2018-11-14T11:18:39.946Z,25.89
2018-11-14T11:19:39.949Z,25.79
2018-11-14T11:20:39.946Z,25.79
2018-11-14T11:21:39.948Z,25.79
2018-11-14T11:22:39.950Z,25.79
2018-11-14T11:23:40.165Z,25.79
2018-11-14T11:24:39.959Z,25.79
2018-11-14T11:25:39.961Z,25.70
2018-11-14T11:26:39.979Z,25.79
2018-11-14T11:27:39.973Z,25.60
2018-11-14T11:28:39.980Z,25.21
2018-11-14T11:29:39.977Z,25.51
2018-11-14T11:30:40.057Z,25.79
2018-11-14T11:31:39.984Z,25.60
2018-11-14T11:32:40.053Z,25.51
2018-11-14T11:33:39.993Z,25.21
2018-11-14T11:34:40.005Z,25.31
2018-11-14T11:35:40.004Z,25.31
2018-11-14T11:36:40.004Z,25.21
2018-11-14T11:37:40.012Z,25.21
2018-11-14T11:38:40.013Z,25.31
2018-11-14T11:39:40.026Z,25.31
2018-11-14T11:40:40.024Z,25.31
2018-11-14T11:41:40.025Z,25.21
2018-11-14T11:42:40.034Z,25.21
2018-11-14T11:43:40.028Z,25.02
2018-11-14T11:44:40.033Z,25.21
2018-11-14T11:45:40.039Z,25.21
2018-11-14T11:46:40.038Z,25.12
2018-11-14T11:47:40.043Z,25.12
2018-11-14T11:48:40.047Z,25.12
2018-11-14T11:49:40.069Z,25.12
2018-11-14T11:50:40.054Z,25.21
2018-11-14T11:51:40.066Z,25.21
2018-11-14T11:52:40.060Z,25.02
2018-11-14T11:53:40.065Z,25.02
2018-11-14T11:54:40.068Z,25.21
2018-11-14T11:55:40.071Z,25.12
2018-11-14T11:56:40.074Z,25.12
2018-11-14T11:57:40.248Z,25.02
2018-11-14T11:58:40.082Z,25.12
2018-11-14T11:59:40.218Z,25.02
2018-11-14T12:00:40.283Z,25.02
2018-11-14T12:01:40.092Z,25.02
2018-11-14T12:02:40.095Z,25.12
2018-11-14T12:03:40.111Z,25.02
2018-11-14T12:04:40.105Z,25.12
2018-11-14T12:05:40.124Z,25.02
2018-11-14T12:06:40.126Z,24.92
2018-11-14T12:07:40.114Z,25.12
2018-11-14T12:08:40.119Z,25.21
2018-11-14T12:09:40.123Z,25.12
2018-11-14T12:10:40.187Z,25.02
2018-11-14T12:11:40.130Z,25.12
2018-11-14T12:12:40.133Z,25.02
2018-11-14T12:13:40.217Z,25.12
2018-11-14T12:14:40.140Z,25.12
2018-11-14T12:15:40.145Z,25.12
2018-11-14T12:16:40.180Z,25.12
2018-11-14T12:17:40.222Z,25.02
2018-11-14T12:18:40.154Z,25.12
2018-11-14T12:19:40.159Z,25.02
2018-11-14T12:20:40.163Z,25.12
2018-11-14T12:21:40.166Z,25.02
2018-11-14T12:22:40.169Z,25.21
2018-11-14T12:23:40.326Z,25.12
2018-11-14T12:24:40.180Z,25.21
2018-11-14T12:25:40.180Z,25.21
2018-11-14T12:26:40.245Z,25.31
2018-11-14T12:27:40.242Z,25.31
2018-11-14T12:28:40.191Z,25.31
2018-11-14T12:29:40.193Z,25.60
2018-11-14T12:30:40.386Z,25.51
2018-11-14T12:31:40.202Z,25.31
2018-11-14T12:32:40.206Z,25.41
2018-11-14T12:33:40.210Z,25.31
2018-11-14T12:34:40.365Z,25.31
2018-11-14T12:35:40.308Z,25.31
2018-11-14T12:36:40.283Z,25.31
2018-11-14T12:37:40.228Z,25.31
2018-11-14T12:38:40.242Z,25.31
2018-11-14T12:39:40.232Z,25.21
2018-11-14T12:40:40.235Z,25.89
2018-11-14T12:41:40.239Z,25.79
2018-11-14T12:42:40.242Z,25.41
2018-11-14T12:43:40.295Z,25.51
2018-11-14T12:44:40.250Z,25.70
2018-11-14T12:45:40.254Z,25.89
2018-11-14T12:46:40.256Z,25.79
2018-11-14T12:47:40.264Z,25.79
2018-11-14T12:48:40.265Z,25.79
2018-11-14T12:49:40.270Z,25.79
2018-11-14T12:50:40.271Z,25.70
2018-11-14T12:51:40.271Z,25.70
2018-11-14T12:52:40.431Z,25.79